sensor_id;sensor_type;location;lat;lon;timestamp;P1;durP1;ratioP1;P2;durP2;ratioP2
31368;SDS011;18004;48.416;10.066;2023-12-28T00:00:09;7.88;;;3.70;;
31368;SDS011;18004;48.416;10.066;2023-12-28T00:02:38;5.00;;;3.13;;
31368;SDS011;18004;48.416;10.066;2023-12-28T00:05:07;8.13;;;3.65;;
31368;SDS011;18004;48.416;10.066;2023-12-28T00:07:36;5.45;;;3.83;;
31368;SDS011;18004;48.416;10.066;2023-12-28T00:10:05;8.00;;;4.18;;
31368;SDS011;18004;48.416;10.066;2023-12-28T00:12:34;4.72;;;3.20;;
31368;SDS011;18004;48.416;10.066;2023-12-28T00:15:08;8.27;;;3.60;;
31368;SDS011;18004;48.416;10.066;2023-12-28T00:17:34;3.75;;;2.80;;
31368;SDS011;18004;48.416;10.066;2023-12-28T00:20:00;8.57;;;3.30;;
31368;SDS011;18004;48.416;10.066;2023-12-28T00:22:25;7.50;;;3.95;;
31368;SDS011;18004;48.416;10.066;2023-12-28T00:24:51;9.10;;;3.78;;
31368;SDS011;18004;48.416;10.066;2023-12-28T00:27:17;7.30;;;3.40;;
31368;SDS011;18004;48.416;10.066;2023-12-28T00:29:43;4.70;;;2.95;;
31368;SDS011;18004;48.416;10.066;2023-12-28T00:32:08;7.88;;;3.83;;
31368;SDS011;18004;48.416;10.066;2023-12-28T00:34:34;5.93;;;3.60;;
31368;SDS011;18004;48.416;10.066;2023-12-28T00:37:01;5.82;;;3.28;;
31368;SDS011;18004;48.416;10.066;2023-12-28T00:39:27;3.92;;;3.20;;
31368;SDS011;18004;48.416;10.066;2023-12-28T00:41:53;5.75;;;3.45;;
31368;SDS011;18004;48.416;10.066;2023-12-28T00:44:19;6.75;;;3.47;;
31368;SDS011;18004;48.416;10.066;2023-12-28T00:46:44;6.80;;;3.33;;
31368;SDS011;18004;48.416;10.066;2023-12-28T00:49:10;6.40;;;3.70;;
31368;SDS011;18004;48.416;10.066;2023-12-28T00:51:36;6.43;;;3.75;;
31368;SDS011;18004;48.416;10.066;2023-12-28T00:54:02;14.95;;;4.05;;
31368;SDS011;18004;48.416;10.066;2023-12-28T00:56:27;7.30;;;4.32;;
31368;SDS011;18004;48.416;10.066;2023-12-28T00:58:53;6.72;;;3.78;;
31368;SDS011;18004;48.416;10.066;2023-12-28T01:01:20;12.18;;;3.75;;
31368;SDS011;18004;48.416;10.066;2023-12-28T01:03:46;7.22;;;4.03;;
31368;SDS011;18004;48.416;10.066;2023-12-28T01:06:11;7.13;;;4.03;;
31368;SDS011;18004;48.416;10.066;2023-12-28T01:08:37;9.20;;;3.78;;
31368;SDS011;18004;48.416;10.066;2023-12-28T01:11:03;6.10;;;3.65;;
31368;SDS011;18004;48.416;10.066;2023-12-28T01:13:29;5.38;;;4.10;;
31368;SDS011;18004;48.416;10.066;2023-12-28T01:15:56;8.02;;;3.92;;
31368;SDS011;18004;48.416;10.066;2023-12-28T01:18:21;8.70;;;3.85;;
31368;SDS011;18004;48.416;10.066;2023-12-28T01:20:47;5.43;;;3.90;;
31368;SDS011;18004;48.416;10.066;2023-12-28T01:23:13;6.68;;;3.58;;
31368;SDS011;18004;48.416;10.066;2023-12-28T01:25:39;9.15;;;4.05;;
31368;SDS011;18004;48.416;10.066;2023-12-28T01:28:04;11.38;;;4.60;;
31368;SDS011;18004;48.416;10.066;2023-12-28T01:30:30;5.40;;;4.10;;
31368;SDS011;18004;48.416;10.066;2023-12-28T01:32:56;6.97;;;3.70;;
31368;SDS011;18004;48.416;10.066;2023-12-28T01:35:22;5.85;;;3.85;;
31368;SDS011;18004;48.416;10.066;2023-12-28T01:37:47;7.55;;;4.07;;
31368;SDS011;18004;48.416;10.066;2023-12-28T01:40:14;7.95;;;4.72;;
31368;SDS011;18004;48.416;10.066;2023-12-28T01:42:41;7.28;;;4.85;;
31368;SDS011;18004;48.416;10.066;2023-12-28T01:45:07;6.95;;;4.28;;
31368;SDS011;18004;48.416;10.066;2023-12-28T01:47:33;6.38;;;4.18;;
31368;SDS011;18004;48.416;10.066;2023-12-28T01:50:00;8.05;;;4.25;;
31368;SDS011;18004;48.416;10.066;2023-12-28T01:52:26;6.93;;;4.25;;
31368;SDS011;18004;48.416;10.066;2023-12-28T01:54:53;6.10;;;4.20;;
31368;SDS011;18004;48.416;10.066;2023-12-28T01:57:20;12.25;;;4.28;;
31368;SDS011;18004;48.416;10.066;2023-12-28T01:59:46;5.65;;;3.65;;
31368;SDS011;18004;48.416;10.066;2023-12-28T02:02:12;5.68;;;3.58;;
31368;SDS011;18004;48.416;10.066;2023-12-28T02:04:39;7.72;;;4.18;;
31368;SDS011;18004;48.416;10.066;2023-12-28T02:07:05;8.05;;;4.85;;
31368;SDS011;18004;48.416;10.066;2023-12-28T02:09:31;5.50;;;3.83;;
31368;SDS011;18004;48.416;10.066;2023-12-28T02:11:57;7.35;;;3.90;;
31368;SDS011;18004;48.416;10.066;2023-12-28T02:14:24;9.23;;;4.63;;
31368;SDS011;18004;48.416;10.066;2023-12-28T02:17:33;8.35;;;4.28;;
31368;SDS011;18004;48.416;10.066;2023-12-28T02:22:20;6.63;;;3.85;;
31368;SDS011;18004;48.416;10.066;2023-12-28T02:24:53;5.45;;;4.13;;
31368;SDS011;18004;48.416;10.066;2023-12-28T02:27:19;7.13;;;3.67;;
31368;SDS011;18004;48.416;10.066;2023-12-28T02:29:44;6.90;;;4.20;;
31368;SDS011;18004;48.416;10.066;2023-12-28T02:32:10;7.78;;;4.03;;
31368;SDS011;18004;48.416;10.066;2023-12-28T02:34:37;7.97;;;4.47;;
31368;SDS011;18004;48.416;10.066;2023-12-28T02:37:08;5.47;;;3.38;;
31368;SDS011;18004;48.416;10.066;2023-12-28T02:39:35;7.60;;;3.58;;
31368;SDS011;18004;48.416;10.066;2023-12-28T02:42:02;6.05;;;4.03;;
31368;SDS011;18004;48.416;10.066;2023-12-28T02:44:28;10.02;;;3.90;;
31368;SDS011;18004;48.416;10.066;2023-12-28T02:46:54;7.60;;;4.45;;
31368;SDS011;18004;48.416;10.066;2023-12-28T02:49:19;5.55;;;3.50;;
31368;SDS011;18004;48.416;10.066;2023-12-28T02:51:45;5.13;;;3.67;;
31368;SDS011;18004;48.416;10.066;2023-12-28T02:54:11;6.70;;;4.20;;
31368;SDS011;18004;48.416;10.066;2023-12-28T02:56:37;8.32;;;4.50;;
31368;SDS011;18004;48.416;10.066;2023-12-28T02:59:05;13.15;;;3.92;;
31368;SDS011;18004;48.416;10.066;2023-12-28T03:01:31;7.07;;;4.38;;
31368;SDS011;18004;48.416;10.066;2023-12-28T03:03:57;5.63;;;3.88;;
31368;SDS011;18004;48.416;10.066;2023-12-28T03:06:23;6.60;;;3.90;;
31368;SDS011;18004;48.416;10.066;2023-12-28T03:08:49;7.53;;;3.78;;
31368;SDS011;18004;48.416;10.066;2023-12-28T03:11:14;7.40;;;4.15;;
31368;SDS011;18004;48.416;10.066;2023-12-28T03:13:40;8.38;;;4.00;;
31368;SDS011;18004;48.416;10.066;2023-12-28T03:16:06;5.30;;;3.65;;
31368;SDS011;18004;48.416;10.066;2023-12-28T03:18:32;7.18;;;3.78;;
31368;SDS011;18004;48.416;10.066;2023-12-28T03:20:58;6.28;;;3.90;;
31368;SDS011;18004;48.416;10.066;2023-12-28T03:23:24;5.60;;;4.13;;
31368;SDS011;18004;48.416;10.066;2023-12-28T03:25:50;6.93;;;4.20;;
31368;SDS011;18004;48.416;10.066;2023-12-28T03:28:16;6.70;;;3.75;;
31368;SDS011;18004;48.416;10.066;2023-12-28T03:30:42;15.65;;;4.40;;
31368;SDS011;18004;48.416;10.066;2023-12-28T03:33:07;7.40;;;4.28;;
31368;SDS011;18004;48.416;10.066;2023-12-28T03:35:33;6.80;;;3.70;;
31368;SDS011;18004;48.416;10.066;2023-12-28T03:37:59;7.32;;;4.03;;
31368;SDS011;18004;48.416;10.066;2023-12-28T03:40:25;6.40;;;3.92;;
31368;SDS011;18004;48.416;10.066;2023-12-28T03:42:51;7.65;;;4.22;;
31368;SDS011;18004;48.416;10.066;2023-12-28T03:45:17;8.05;;;4.15;;
31368;SDS011;18004;48.416;10.066;2023-12-28T03:47:43;7.20;;;4.03;;
31368;SDS011;18004;48.416;10.066;2023-12-28T03:50:08;13.85;;;5.22;;
31368;SDS011;18004;48.416;10.066;2023-12-28T03:52:34;10.20;;;4.47;;
31368;SDS011;18004;48.416;10.066;2023-12-28T03:55:00;10.63;;;4.70;;
31368;SDS011;18004;48.416;10.066;2023-12-28T03:57:26;6.78;;;4.68;;
31368;SDS011;18004;48.416;10.066;2023-12-28T03:59:52;7.25;;;4.10;;
31368;SDS011;18004;48.416;10.066;2023-12-28T04:02:19;5.65;;;3.47;;
31368;SDS011;18004;48.416;10.066;2023-12-28T04:04:44;6.47;;;3.33;;
31368;SDS011;18004;48.416;10.066;2023-12-28T04:07:10;6.25;;;4.00;;
31368;SDS011;18004;48.416;10.066;2023-12-28T04:09:36;7.70;;;4.18;;
31368;SDS011;18004;48.416;10.066;2023-12-28T04:12:02;3.55;;;3.20;;
31368;SDS011;18004;48.416;10.066;2023-12-28T04:14:28;6.20;;;4.10;;
31368;SDS011;18004;48.416;10.066;2023-12-28T04:16:53;6.97;;;3.72;;
31368;SDS011;18004;48.416;10.066;2023-12-28T04:19:19;9.40;;;4.07;;
31368;SDS011;18004;48.416;10.066;2023-12-28T04:21:45;7.22;;;3.67;;
31368;SDS011;18004;48.416;10.066;2023-12-28T04:24:11;5.45;;;3.25;;
31368;SDS011;18004;48.416;10.066;2023-12-28T04:26:36;5.68;;;3.70;;
31368;SDS011;18004;48.416;10.066;2023-12-28T04:29:02;5.63;;;3.40;;
31368;SDS011;18004;48.416;10.066;2023-12-28T04:31:28;8.73;;;4.13;;
31368;SDS011;18004;48.416;10.066;2023-12-28T04:33:53;6.15;;;3.83;;
31368;SDS011;18004;48.416;10.066;2023-12-28T04:36:19;6.82;;;4.25;;
31368;SDS011;18004;48.416;10.066;2023-12-28T04:38:45;9.85;;;3.80;;
31368;SDS011;18004;48.416;10.066;2023-12-28T04:41:11;10.20;;;4.10;;
31368;SDS011;18004;48.416;10.066;2023-12-28T04:43:37;5.60;;;4.10;;
31368;SDS011;18004;48.416;10.066;2023-12-28T04:46:04;6.10;;;3.78;;
31368;SDS011;18004;48.416;10.066;2023-12-28T04:48:30;6.45;;;3.33;;
31368;SDS011;18004;48.416;10.066;2023-12-28T04:50:57;7.65;;;3.53;;
31368;SDS011;18004;48.416;10.066;2023-12-28T04:53:22;5.25;;;3.40;;
31368;SDS011;18004;48.416;10.066;2023-12-28T04:55:48;6.68;;;3.83;;
31368;SDS011;18004;48.416;10.066;2023-12-28T04:58:14;7.40;;;3.53;;
31368;SDS011;18004;48.416;10.066;2023-12-28T05:00:40;5.53;;;3.47;;
31368;SDS011;18004;48.416;10.066;2023-12-28T05:03:06;7.38;;;3.00;;
31368;SDS011;18004;48.416;10.066;2023-12-28T05:05:32;5.88;;;4.10;;
31368;SDS011;18004;48.416;10.066;2023-12-28T05:07:58;7.55;;;4.00;;
31368;SDS011;18004;48.416;10.066;2023-12-28T05:10:24;7.60;;;3.50;;
31368;SDS011;18004;48.416;10.066;2023-12-28T05:12:49;10.20;;;4.22;;
31368;SDS011;18004;48.416;10.066;2023-12-28T05:15:15;11.35;;;3.67;;
31368;SDS011;18004;48.416;10.066;2023-12-28T05:17:43;5.35;;;3.42;;
31368;SDS011;18004;48.416;10.066;2023-12-28T05:20:12;5.97;;;3.83;;
31368;SDS011;18004;48.416;10.066;2023-12-28T05:22:38;7.95;;;3.85;;
31368;SDS011;18004;48.416;10.066;2023-12-28T05:25:04;5.97;;;3.72;;
31368;SDS011;18004;48.416;10.066;2023-12-28T05:27:30;6.15;;;3.60;;
31368;SDS011;18004;48.416;10.066;2023-12-28T05:29:55;5.70;;;3.70;;
31368;SDS011;18004;48.416;10.066;2023-12-28T05:32:21;4.63;;;3.72;;
31368;SDS011;18004;48.416;10.066;2023-12-28T05:34:47;7.03;;;4.20;;
31368;SDS011;18004;48.416;10.066;2023-12-28T05:37:15;8.27;;;3.70;;
31368;SDS011;18004;48.416;10.066;2023-12-28T05:39:40;5.35;;;3.10;;
31368;SDS011;18004;48.416;10.066;2023-12-28T05:42:06;7.85;;;3.60;;
31368;SDS011;18004;48.416;10.066;2023-12-28T05:44:32;8.35;;;5.03;;
31368;SDS011;18004;48.416;10.066;2023-12-28T05:46:58;7.32;;;4.47;;
31368;SDS011;18004;48.416;10.066;2023-12-28T05:49:23;7.03;;;4.40;;
31368;SDS011;18004;48.416;10.066;2023-12-28T05:51:50;4.60;;;3.30;;
31368;SDS011;18004;48.416;10.066;2023-12-28T05:54:16;6.38;;;3.75;;
31368;SDS011;18004;48.416;10.066;2023-12-28T05:56:41;6.80;;;3.55;;
31368;SDS011;18004;48.416;10.066;2023-12-28T05:59:07;7.22;;;3.78;;
31368;SDS011;18004;48.416;10.066;2023-12-28T06:01:40;7.07;;;4.18;;
31368;SDS011;18004;48.416;10.066;2023-12-28T06:04:07;6.97;;;3.80;;
31368;SDS011;18004;48.416;10.066;2023-12-28T06:06:33;6.07;;;3.88;;
31368;SDS011;18004;48.416;10.066;2023-12-28T06:08:59;7.03;;;3.78;;
31368;SDS011;18004;48.416;10.066;2023-12-28T06:11:25;7.03;;;4.32;;
31368;SDS011;18004;48.416;10.066;2023-12-28T06:13:51;7.13;;;4.05;;
31368;SDS011;18004;48.416;10.066;2023-12-28T06:16:16;6.65;;;4.07;;
31368;SDS011;18004;48.416;10.066;2023-12-28T06:18:42;6.05;;;3.55;;
31368;SDS011;18004;48.416;10.066;2023-12-28T06:21:08;5.82;;;3.78;;
31368;SDS011;18004;48.416;10.066;2023-12-28T06:23:34;6.28;;;4.05;;
31368;SDS011;18004;48.416;10.066;2023-12-28T06:26:05;7.68;;;3.60;;
31368;SDS011;18004;48.416;10.066;2023-12-28T06:28:31;5.72;;;3.58;;
31368;SDS011;18004;48.416;10.066;2023-12-28T06:30:58;6.80;;;3.80;;
31368;SDS011;18004;48.416;10.066;2023-12-28T06:33:28;6.47;;;3.77;;
31368;SDS011;18004;48.416;10.066;2023-12-28T06:35:54;7.35;;;3.40;;
31368;SDS011;18004;48.416;10.066;2023-12-28T06:38:20;7.18;;;3.80;;
31368;SDS011;18004;48.416;10.066;2023-12-28T06:40:46;5.45;;;3.60;;
31368;SDS011;18004;48.416;10.066;2023-12-28T06:43:11;5.78;;;3.72;;
31368;SDS011;18004;48.416;10.066;2023-12-28T06:45:37;4.35;;;3.45;;
31368;SDS011;18004;48.416;10.066;2023-12-28T06:48:04;7.25;;;3.50;;
31368;SDS011;18004;48.416;10.066;2023-12-28T06:50:30;5.38;;;3.75;;
31368;SDS011;18004;48.416;10.066;2023-12-28T06:52:55;5.28;;;3.63;;
31368;SDS011;18004;48.416;10.066;2023-12-28T06:55:22;9.38;;;3.72;;
31368;SDS011;18004;48.416;10.066;2023-12-28T06:57:48;5.63;;;3.40;;
31368;SDS011;18004;48.416;10.066;2023-12-28T07:00:14;4.45;;;3.20;;
31368;SDS011;18004;48.416;10.066;2023-12-28T07:02:40;6.93;;;4.22;;
31368;SDS011;18004;48.416;10.066;2023-12-28T07:05:06;7.70;;;4.07;;
31368;SDS011;18004;48.416;10.066;2023-12-28T07:07:33;7.95;;;4.03;;
31368;SDS011;18004;48.416;10.066;2023-12-28T07:09:59;7.90;;;4.85;;
31368;SDS011;18004;48.416;10.066;2023-12-28T07:12:24;6.32;;;3.85;;
31368;SDS011;18004;48.416;10.066;2023-12-28T07:14:50;5.57;;;3.55;;
31368;SDS011;18004;48.416;10.066;2023-12-28T07:17:16;6.35;;;3.55;;
31368;SDS011;18004;48.416;10.066;2023-12-28T07:19:42;7.47;;;3.65;;
31368;SDS011;18004;48.416;10.066;2023-12-28T07:22:09;7.03;;;4.00;;
31368;SDS011;18004;48.416;10.066;2023-12-28T07:24:35;6.18;;;3.35;;
31368;SDS011;18004;48.416;10.066;2023-12-28T07:27:01;11.00;;;3.33;;
31368;SDS011;18004;48.416;10.066;2023-12-28T07:29:27;5.97;;;2.80;;
31368;SDS011;18004;48.416;10.066;2023-12-28T07:31:53;5.53;;;3.25;;
31368;SDS011;18004;48.416;10.066;2023-12-28T07:34:19;4.30;;;2.97;;
31368;SDS011;18004;48.416;10.066;2023-12-28T07:36:45;6.03;;;3.00;;
31368;SDS011;18004;48.416;10.066;2023-12-28T07:39:11;3.97;;;3.30;;
31368;SDS011;18004;48.416;10.066;2023-12-28T07:41:36;9.10;;;3.20;;
31368;SDS011;18004;48.416;10.066;2023-12-28T07:44:02;8.15;;;2.88;;
31368;SDS011;18004;48.416;10.066;2023-12-28T07:46:28;6.70;;;3.60;;
31368;SDS011;18004;48.416;10.066;2023-12-28T07:48:54;4.72;;;3.13;;
31368;SDS011;18004;48.416;10.066;2023-12-28T07:51:20;11.93;;;3.50;;
31368;SDS011;18004;48.416;10.066;2023-12-28T07:53:45;4.88;;;2.90;;
31368;SDS011;18004;48.416;10.066;2023-12-28T07:56:11;7.05;;;4.10;;
31368;SDS011;18004;48.416;10.066;2023-12-28T07:58:37;6.38;;;3.63;;
31368;SDS011;18004;48.416;10.066;2023-12-28T08:01:09;4.60;;;2.90;;
31368;SDS011;18004;48.416;10.066;2023-12-28T08:03:36;5.50;;;3.90;;
31368;SDS011;18004;48.416;10.066;2023-12-28T08:06:02;5.97;;;3.67;;
31368;SDS011;18004;48.416;10.066;2023-12-28T08:08:28;11.63;;;3.90;;
31368;SDS011;18004;48.416;10.066;2023-12-28T08:10:54;4.18;;;3.28;;
31368;SDS011;18004;48.416;10.066;2023-12-28T08:13:20;6.35;;;3.38;;
31368;SDS011;18004;48.416;10.066;2023-12-28T08:15:45;11.73;;;4.03;;
31368;SDS011;18004;48.416;10.066;2023-12-28T08:18:11;6.75;;;3.53;;
31368;SDS011;18004;48.416;10.066;2023-12-28T08:20:37;5.50;;;3.13;;
31368;SDS011;18004;48.416;10.066;2023-12-28T08:23:03;7.80;;;3.78;;
31368;SDS011;18004;48.416;10.066;2023-12-28T08:25:29;5.40;;;3.50;;
31368;SDS011;18004;48.416;10.066;2023-12-28T08:27:55;6.63;;;3.90;;
31368;SDS011;18004;48.416;10.066;2023-12-28T08:30:20;4.88;;;3.53;;
31368;SDS011;18004;48.416;10.066;2023-12-28T08:32:46;7.65;;;3.50;;
31368;SDS011;18004;48.416;10.066;2023-12-28T08:35:12;7.20;;;3.85;;
31368;SDS011;18004;48.416;10.066;2023-12-28T08:37:38;5.25;;;3.13;;
31368;SDS011;18004;48.416;10.066;2023-12-28T08:40:06;6.30;;;3.22;;
31368;SDS011;18004;48.416;10.066;2023-12-28T08:42:32;7.70;;;3.63;;
31368;SDS011;18004;48.416;10.066;2023-12-28T08:44:58;4.88;;;3.47;;
31368;SDS011;18004;48.416;10.066;2023-12-28T08:47:24;5.78;;;3.53;;
31368;SDS011;18004;48.416;10.066;2023-12-28T08:49:49;6.30;;;3.65;;
31368;SDS011;18004;48.416;10.066;2023-12-28T08:52:15;4.63;;;3.05;;
31368;SDS011;18004;48.416;10.066;2023-12-28T08:54:41;3.78;;;2.58;;
31368;SDS011;18004;48.416;10.066;2023-12-28T08:57:07;8.60;;;3.78;;
31368;SDS011;18004;48.416;10.066;2023-12-28T08:59:36;5.28;;;3.25;;
31368;SDS011;18004;48.416;10.066;2023-12-28T09:02:02;6.45;;;3.13;;
31368;SDS011;18004;48.416;10.066;2023-12-28T09:04:28;6.45;;;3.38;;
31368;SDS011;18004;48.416;10.066;2023-12-28T09:06:54;6.97;;;3.42;;
31368;SDS011;18004;48.416;10.066;2023-12-28T09:09:19;6.72;;;3.38;;
31368;SDS011;18004;48.416;10.066;2023-12-28T09:11:45;5.43;;;3.08;;
31368;SDS011;18004;48.416;10.066;2023-12-28T09:14:11;7.32;;;3.10;;
31368;SDS011;18004;48.416;10.066;2023-12-28T09:16:37;6.43;;;2.97;;
31368;SDS011;18004;48.416;10.066;2023-12-28T09:19:04;6.60;;;2.80;;
31368;SDS011;18004;48.416;10.066;2023-12-28T09:21:30;7.80;;;3.25;;
31368;SDS011;18004;48.416;10.066;2023-12-28T09:23:55;6.28;;;3.20;;
31368;SDS011;18004;48.416;10.066;2023-12-28T09:26:21;12.10;;;3.42;;
31368;SDS011;18004;48.416;10.066;2023-12-28T09:28:47;4.45;;;2.92;;
31368;SDS011;18004;48.416;10.066;2023-12-28T09:31:12;7.85;;;2.78;;
31368;SDS011;18004;48.416;10.066;2023-12-28T09:33:38;3.75;;;2.80;;
31368;SDS011;18004;48.416;10.066;2023-12-28T09:36:04;3.05;;;2.38;;
31368;SDS011;18004;48.416;10.066;2023-12-28T09:38:30;4.88;;;2.80;;
31368;SDS011;18004;48.416;10.066;2023-12-28T09:40:56;3.58;;;2.42;;
31368;SDS011;18004;48.416;10.066;2023-12-28T09:43:30;6.35;;;2.50;;
31368;SDS011;18004;48.416;10.066;2023-12-28T09:46:05;5.55;;;2.63;;
31368;SDS011;18004;48.416;10.066;2023-12-28T09:48:36;4.00;;;2.55;;
31368;SDS011;18004;48.416;10.066;2023-12-28T09:51:04;5.85;;;2.40;;
31368;SDS011;18004;48.416;10.066;2023-12-28T09:53:30;6.75;;;2.60;;
31368;SDS011;18004;48.416;10.066;2023-12-28T09:55:56;10.85;;;2.13;;
31368;SDS011;18004;48.416;10.066;2023-12-28T09:58:23;6.82;;;2.40;;
31368;SDS011;18004;48.416;10.066;2023-12-28T10:00:50;3.28;;;2.30;;
31368;SDS011;18004;48.416;10.066;2023-12-28T10:03:16;3.60;;;2.20;;
31368;SDS011;18004;48.416;10.066;2023-12-28T10:05:43;2.90;;;2.13;;
31368;SDS011;18004;48.416;10.066;2023-12-28T10:08:16;4.35;;;2.63;;
31368;SDS011;18004;48.416;10.066;2023-12-28T10:10:42;4.68;;;2.70;;
31368;SDS011;18004;48.416;10.066;2023-12-28T10:13:15;2.78;;;2.20;;
31368;SDS011;18004;48.416;10.066;2023-12-28T10:15:42;2.47;;;2.03;;
31368;SDS011;18004;48.416;10.066;2023-12-28T10:18:08;7.82;;;2.45;;
31368;SDS011;18004;48.416;10.066;2023-12-28T10:20:34;2.42;;;1.88;;
31368;SDS011;18004;48.416;10.066;2023-12-28T10:23:00;6.63;;;2.38;;
31368;SDS011;18004;48.416;10.066;2023-12-28T10:25:30;2.38;;;1.92;;
31368;SDS011;18004;48.416;10.066;2023-12-28T10:27:57;8.05;;;2.42;;
31368;SDS011;18004;48.416;10.066;2023-12-28T10:30:28;2.85;;;2.17;;
31368;SDS011;18004;48.416;10.066;2023-12-28T10:32:55;3.95;;;2.08;;
31368;SDS011;18004;48.416;10.066;2023-12-28T10:35:21;5.85;;;2.38;;
31368;SDS011;18004;48.416;10.066;2023-12-28T10:37:46;6.72;;;2.03;;
31368;SDS011;18004;48.416;10.066;2023-12-28T10:40:18;2.00;;;1.60;;
31368;SDS011;18004;48.416;10.066;2023-12-28T10:42:49;3.72;;;2.00;;
31368;SDS011;18004;48.416;10.066;2023-12-28T10:45:17;3.40;;;1.92;;
31368;SDS011;18004;48.416;10.066;2023-12-28T10:47:57;5.75;;;2.17;;
31368;SDS011;18004;48.416;10.066;2023-12-28T10:50:42;2.50;;;1.70;;
31368;SDS011;18004;48.416;10.066;2023-12-28T10:58:47;7.38;;;1.83;;
31368;SDS011;18004;48.416;10.066;2023-12-28T11:01:32;3.47;;;1.80;;
31368;SDS011;18004;48.416;10.066;2023-12-28T11:04:04;3.60;;;2.22;;
31368;SDS011;18004;48.416;10.066;2023-12-28T11:06:37;3.58;;;2.05;;
31368;SDS011;18004;48.416;10.066;2023-12-28T11:09:04;4.40;;;2.08;;
31368;SDS011;18004;48.416;10.066;2023-12-28T11:11:33;5.57;;;2.22;;
31368;SDS011;18004;48.416;10.066;2023-12-28T11:13:59;3.92;;;2.10;;
31368;SDS011;18004;48.416;10.066;2023-12-28T11:16:26;7.32;;;2.88;;
31368;SDS011;18004;48.416;10.066;2023-12-28T11:18:54;6.22;;;2.10;;
31368;SDS011;18004;48.416;10.066;2023-12-28T11:21:21;2.60;;;2.05;;
31368;SDS011;18004;48.416;10.066;2023-12-28T11:23:48;2.72;;;1.80;;
31368;SDS011;18004;48.416;10.066;2023-12-28T11:26:17;6.30;;;2.55;;
31368;SDS011;18004;48.416;10.066;2023-12-28T11:28:46;3.55;;;2.08;;
31368;SDS011;18004;48.416;10.066;2023-12-28T11:31:17;4.97;;;1.95;;
31368;SDS011;18004;48.416;10.066;2023-12-28T11:33:44;2.85;;;1.88;;
31368;SDS011;18004;48.416;10.066;2023-12-28T11:36:11;5.47;;;2.10;;
31368;SDS011;18004;48.416;10.066;2023-12-28T11:39:01;3.70;;;2.28;;
31368;SDS011;18004;48.416;10.066;2023-12-28T11:44:01;4.20;;;2.35;;
31368;SDS011;18004;48.416;10.066;2023-12-28T11:46:30;5.65;;;2.50;;
31368;SDS011;18004;48.416;10.066;2023-12-28T11:49:07;5.30;;;2.47;;
31368;SDS011;18004;48.416;10.066;2023-12-28T11:51:34;3.13;;;2.13;;
31368;SDS011;18004;48.416;10.066;2023-12-28T11:54:24;3.83;;;2.08;;
31368;SDS011;18004;48.416;10.066;2023-12-28T11:56:54;4.75;;;2.60;;
31368;SDS011;18004;48.416;10.066;2023-12-28T11:59:20;2.95;;;1.73;;
31368;SDS011;18004;48.416;10.066;2023-12-28T12:01:52;5.03;;;2.05;;
31368;SDS011;18004;48.416;10.066;2023-12-28T12:04:21;3.53;;;1.70;;
31368;SDS011;18004;48.416;10.066;2023-12-28T12:06:47;5.40;;;2.08;;
31368;SDS011;18004;48.416;10.066;2023-12-28T12:09:16;5.82;;;2.28;;
31368;SDS011;18004;48.416;10.066;2023-12-28T12:11:43;4.47;;;1.70;;
31368;SDS011;18004;48.416;10.066;2023-12-28T12:14:09;3.97;;;1.77;;
31368;SDS011;18004;48.416;10.066;2023-12-28T12:16:36;4.43;;;1.92;;
31368;SDS011;18004;48.416;10.066;2023-12-28T12:19:05;8.57;;;2.28;;
31368;SDS011;18004;48.416;10.066;2023-12-28T12:21:32;7.13;;;2.55;;
31368;SDS011;18004;48.416;10.066;2023-12-28T12:23:59;6.07;;;2.17;;
31368;SDS011;18004;48.416;10.066;2023-12-28T12:26:26;2.20;;;1.70;;
31368;SDS011;18004;48.416;10.066;2023-12-28T12:28:54;5.50;;;2.33;;
31368;SDS011;18004;48.416;10.066;2023-12-28T12:31:20;9.07;;;1.90;;
31368;SDS011;18004;48.416;10.066;2023-12-28T12:33:47;5.28;;;2.13;;
31368;SDS011;18004;48.416;10.066;2023-12-28T12:36:13;7.03;;;2.15;;
31368;SDS011;18004;48.416;10.066;2023-12-28T12:38:41;6.28;;;1.58;;
31368;SDS011;18004;48.416;10.066;2023-12-28T12:41:09;2.40;;;1.80;;
31368;SDS011;18004;48.416;10.066;2023-12-28T12:43:36;3.47;;;2.42;;
31368;SDS011;18004;48.416;10.066;2023-12-28T12:46:02;3.75;;;1.92;;
31368;SDS011;18004;48.416;10.066;2023-12-28T12:48:29;3.25;;;1.88;;
31368;SDS011;18004;48.416;10.066;2023-12-28T12:50:55;2.30;;;1.80;;
31368;SDS011;18004;48.416;10.066;2023-12-28T12:53:21;3.65;;;2.10;;
31368;SDS011;18004;48.416;10.066;2023-12-28T12:55:47;7.60;;;2.20;;
31368;SDS011;18004;48.416;10.066;2023-12-28T12:58:14;8.30;;;2.03;;
31368;SDS011;18004;48.416;10.066;2023-12-28T13:00:42;6.28;;;2.10;;
31368;SDS011;18004;48.416;10.066;2023-12-28T13:03:10;5.00;;;2.00;;
31368;SDS011;18004;48.416;10.066;2023-12-28T13:05:36;3.58;;;1.60;;
31368;SDS011;18004;48.416;10.066;2023-12-28T13:08:05;3.58;;;2.00;;
31368;SDS011;18004;48.416;10.066;2023-12-28T13:10:31;2.72;;;1.80;;
31368;SDS011;18004;48.416;10.066;2023-12-28T13:12:57;2.53;;;1.70;;
31368;SDS011;18004;48.416;10.066;2023-12-28T13:15:23;3.45;;;1.90;;
31368;SDS011;18004;48.416;10.066;2023-12-28T13:17:49;4.78;;;2.08;;
31368;SDS011;18004;48.416;10.066;2023-12-28T13:20:14;3.10;;;1.98;;
31368;SDS011;18004;48.416;10.066;2023-12-28T13:22:40;3.60;;;1.83;;
31368;SDS011;18004;48.416;10.066;2023-12-28T13:25:06;3.70;;;1.98;;
31368;SDS011;18004;48.416;10.066;2023-12-28T13:27:32;3.85;;;2.28;;
31368;SDS011;18004;48.416;10.066;2023-12-28T13:29:58;5.82;;;2.08;;
31368;SDS011;18004;48.416;10.066;2023-12-28T13:32:24;3.35;;;1.90;;
31368;SDS011;18004;48.416;10.066;2023-12-28T13:34:50;2.47;;;1.75;;
31368;SDS011;18004;48.416;10.066;2023-12-28T13:37:16;2.78;;;1.85;;
31368;SDS011;18004;48.416;10.066;2023-12-28T13:39:42;3.65;;;2.00;;
31368;SDS011;18004;48.416;10.066;2023-12-28T13:42:08;2.30;;;1.83;;
31368;SDS011;18004;48.416;10.066;2023-12-28T13:44:34;5.07;;;2.22;;
31368;SDS011;18004;48.416;10.066;2023-12-28T13:47:01;2.65;;;1.90;;
31368;SDS011;18004;48.416;10.066;2023-12-28T13:49:28;2.63;;;1.85;;
31368;SDS011;18004;48.416;10.066;2023-12-28T13:51:54;2.35;;;2.00;;
31368;SDS011;18004;48.416;10.066;2023-12-28T13:54:20;5.43;;;2.28;;
31368;SDS011;18004;48.416;10.066;2023-12-28T13:56:46;6.70;;;2.55;;
31368;SDS011;18004;48.416;10.066;2023-12-28T13:59:13;2.85;;;2.05;;
31368;SDS011;18004;48.416;10.066;2023-12-28T14:01:39;2.20;;;1.80;;
31368;SDS011;18004;48.416;10.066;2023-12-28T14:04:05;4.10;;;2.05;;
31368;SDS011;18004;48.416;10.066;2023-12-28T14:06:34;3.55;;;2.05;;
31368;SDS011;18004;48.416;10.066;2023-12-28T14:09:00;3.28;;;2.05;;
31368;SDS011;18004;48.416;10.066;2023-12-28T14:11:26;3.92;;;2.70;;
31368;SDS011;18004;48.416;10.066;2023-12-28T14:13:51;6.15;;;2.20;;
31368;SDS011;18004;48.416;10.066;2023-12-28T14:16:17;2.65;;;1.88;;
31368;SDS011;18004;48.416;10.066;2023-12-28T14:18:43;4.30;;;1.92;;
31368;SDS011;18004;48.416;10.066;2023-12-28T14:21:09;3.67;;;1.88;;
31368;SDS011;18004;48.416;10.066;2023-12-28T14:23:37;2.47;;;1.90;;
31368;SDS011;18004;48.416;10.066;2023-12-28T14:26:04;3.13;;;1.92;;
31368;SDS011;18004;48.416;10.066;2023-12-28T14:28:37;2.50;;;2.13;;
31368;SDS011;18004;48.416;10.066;2023-12-28T14:31:03;4.05;;;2.58;;
31368;SDS011;18004;48.416;10.066;2023-12-28T14:33:29;5.30;;;2.30;;
31368;SDS011;18004;48.416;10.066;2023-12-28T14:35:57;6.18;;;2.58;;
31368;SDS011;18004;48.416;10.066;2023-12-28T14:38:24;8.68;;;2.28;;
31368;SDS011;18004;48.416;10.066;2023-12-28T14:40:50;7.15;;;3.15;;